• Join FlightAware (Why Join?)
  • Login
  • US Flag 
09:56PM EDT


 

Airport Tracker/Info


-or-


 

Live Flight TrackerFlight Track Log ✈ AAY655 ✈ 26-Mar-2014 ✈ KIAG - KSFB

Flight Track Log - Related Links

Times and Time Zones

All times are in EDT time to prevent confusion due to time zone crossing. See the AAY655 flight status page for this flight to view local times or setup timezone preferences in your user account.

Time Position Orientation Groundspeed Altitude Reporting Facility
EDT Latitude Longitude Course Direction KTS MPH feet Rate Location/Type
08:07PM 43.0934 -78.9821 188° South 173 199 2,200  Level FlightAware ADS-B (CYYZ)
08:07PM 43.0926 -78.9822 182° South 179 206 2,200 1,200 Level FlightAware ADS-B (CYYZ)
08:08PM 43.0787 -78.9816 176° South 204 235 2,600 1,500 Climbing FlightAware ADS-B (CYYZ)
08:08PM 43.0609 -78.9806 178° South 224 258 3,000 1,680 Climbing FlightAware ADS-B (CYYZ)
08:08PM 43.0497 -78.9822 188° South 241 277 3,300 2,400 Climbing FlightAware ADS-B (CYYZ)
08:08PM 43.0326 -78.9853 188° South 251 289 4,000 3,240 Climbing FlightAware ADS-B (CYYZ)
08:08PM 43.0149 -78.9885 188° South 251 289 5,000 3,240 Climbing FlightAware ADS-B (CYYZ)
08:09PM 42.9976 -78.9918 188° South 258 297 5,700 2,640 Climbing FlightAware ADS-B (CYYZ)
08:09PM 42.9801 -78.9950 188° South 271 312 6,300 2,460 Climbing FlightAware ADS-B (CYYZ)
08:09PM 42.9623 -78.9981 188° South 280 322 6,900 2,760 Climbing FlightAware ADS-B (CYYZ)
08:09PM 42.9406 -79.0016 187° South 285 328 7,700 2,880 Climbing FlightAware ADS-B (CYYZ)
08:10PM 42.9206 -79.0046 187° South 293 337 8,400 2,880 Climbing FlightAware ADS-B (CYYZ)
08:10PM 42.8999 -79.0077 187° South 295 339 9,200 3,000 Climbing FlightAware ADS-B (CYYZ)
08:10PM 42.8793 -79.0111 187° South 300 345 9,900 1,860 Climbing FlightAware ADS-B (CYYZ)
08:11PM 42.8360 -79.0190 188° South 334 384 10,600 1,500 Climbing FlightAware ADS-B (CYYZ)
08:11PM 42.7883 -79.0269 187° South 362 417 11,400 2,220 Climbing FlightAware ADS-B (CYYZ)
08:12PM 42.7367 -79.0344 186° South 370 426 12,800 2,100 Climbing FlightAware ADS-B (CYYZ)
08:12PM 42.6832 -79.0423 187° South 397 457 13,500 1,860 Climbing FlightAware ADS-B (CYYZ)
08:13PM 42.6302 -79.0505 187° South 407 468 14,700 2,460 Climbing FlightAware ADS-B (CYYZ)
08:13PM 42.5742 -79.0591 187° South 411 473 16,000 2,460 Climbing FlightAware ADS-B (CYYZ)
08:14PM 42.5155 -79.0684 187° South 415 478 17,200 2,400 Climbing FlightAware ADS-B (CYYZ)
08:14PM 42.4568 -79.0778 187° South 420 483 18,400 2,280 Climbing FlightAware ADS-B (CYYZ)
08:15PM 42.3991 -79.0871 187° South 424 488 19,500 1,980 Climbing FlightAware ADS-B (CYYZ)
08:15PM 42.3415 -79.0964 187° South 435 501 20,400 1,860 Climbing FlightAware ADS-B (CYYZ)
08:16PM 42.2618 -79.1117 192° South 438 504 21,700 1,800 Climbing FlightAware ADS-B (CYYZ)
08:16PM 42.2038 -79.1323 199° South 436 502 22,600 1,920 Climbing FlightAware ADS-B (CYYZ)
08:17PM 42.1438 -79.1636 205° Southwest 429 494 23,600 1,800 Climbing FlightAware ADS-B (CYYZ)
08:17PM 42.0922 -79.1995 211° Southwest 427 491 24,400 1,560 Climbing FlightAware ADS-B (CYYZ)
08:18PM 42.0403 -79.2420 212° Southwest 427 491 25,200 1,620 Climbing FlightAware ADS-B (CYYZ)
08:18PM 41.9922 -79.2812 212° Southwest 432 497 26,000 1,500 Climbing FlightAware ADS-B (CYYZ)
08:19PM 41.9395 -79.3238 212° Southwest 436 502 26,700 1,320 Climbing FlightAware ADS-B (CYYZ)
08:19PM 41.9026 -79.3493 201° Southwest 457 526 27,100 1,200 Climbing FlightAware ADS-B (CYYZ)
08:20PM 41.8620 -79.3624 190° South 476 548 27,500 1,200 Climbing FlightAware ADS-B (CYYZ)
08:20PM 41.7947 -79.3773 190° South 482 555 28,100 960 Climbing FlightAware ADS-B (CYYZ)
08:21PM 41.7273 -79.3929 190° South 489 563 28,500 1,080 Climbing FlightAware ADS-B (CYYZ)
08:21PM 41.6676 -79.4069 190° South 493 567 29,200 960 Climbing FlightAware ADS-B (CYYZ)
08:22PM 41.6095 -79.4205 190° South 496 571 29,500 1,200 Climbing FlightAware ADS-B (CYYZ)
08:22PM 41.4784 -79.4513 190° South 496 571 30,800 1,380 Climbing FlightAware ADS-B (CYYZ)
08:23PM 41.4082 -79.4705 198° South 486 559 31,400 960 Climbing FlightAware ADS-B (CYYZ)
08:24PM 41.3280 -79.5134 203° Southwest 474 545 32,000 480 Climbing FlightAware ADS-B (CYYZ)
08:24PM 41.2647 -79.5488 203° Southwest 473 544 32,000  Level FlightAware ADS-B (CYYZ)
08:25PM 41.2037 -79.5833 204° Southwest 474 545 32,000  Level FlightAware ADS-B (CYYZ)
08:25PM 41.1479 -79.6150 204° Southwest 473 544 32,000  Level FlightAware ADS-B (CYYZ)
08:26PM 41.0819 -79.6524 204° Southwest 472 543 32,000  Level FlightAware ADS-B (CYYZ)
08:26PM 41.0672 -79.6608 204° Southwest 472 543 32,000 120 Level FlightAware ADS-B (CYYZ)
08:27PM 40.8600 -79.7791 203° Southwest 471 542 32,300 480 Climbing FlightAware ADS-B (CYYZ)
08:28PM 40.8128 -79.7980 191° South 487 560 32,900 1,020 Climbing FlightAware ADS-B (CYYZ)
08:29PM 40.6981 -79.8190 189° South 485 558 34,000 660 Climbing FlightAware ADS-B (CYYZ)
08:29PM 40.5265 -79.8533 189° South 482 555 34,000  Level FlightAware ADS-B (KAGC)
08:31PM 40.2946 -79.8989 189° South 482 555 34,000  Level FlightAware ADS-B (KAGC)
08:32PM 40.2086 -79.9156 188° South 483 556 34,000  Level FlightAware ADS-B (KAGC)
08:33PM 40.1515 -79.9266 189° South 480 552 34,000 720 Level FlightAware ADS-B (KAGC)
08:33PM 39.9948 -79.9571 188° South 471 542 35,200 1,200 Climbing FlightAware ADS-B (KAGC)
08:34PM 39.9041 -79.9746 189° South 463 533 36,000 480 Climbing FlightAware ADS-B (KAGC)
08:35PM 39.8700 -79.9817 189° South 468 539 36,000  Level Cleveland Center
08:36PM 39.7419 -80.0053 188° South 465 535 36,000  Level Cleveland Center
08:37PM 39.6156 -80.0308 189° South 463 533 36,000  Level Cleveland Center
08:38PM 39.5458 -80.0456 189° South 470 541 36,000  Level Washington Center
08:39PM 39.4219 -80.0703 189° South 464 534 36,000  Level Washington Center
08:40PM 39.2939 -80.0944 188° South 464 534 36,000  Level Washington Center
08:41PM 39.1681 -80.1189 189° South 464 534 36,000 180 Level Washington Center
08:42PM 39.0442 -80.1406 188° South 464 534 36,400 600 Climbing Washington Center
08:43PM 38.9033 -80.1719 190° South 464 534 37,300 780 Climbing Washington Center
08:44PM 38.7772 -80.1961 188° South 469 540 38,000 300 Climbing Washington Center
08:45PM 38.6639 -80.2181 189° South 469 540 38,000  Level Washington Center
08:46PM 38.5400 -80.2397 188° South 464 534 38,000  Level Washington Center
08:47PM 38.4139 -80.2608 187° South 464 534 38,000  Level Washington Center
08:48PM 38.2900 -80.2850 189° South 464 534 38,000  Level Washington Center
08:49PM 38.1533 -80.3106 188° South 464 534 38,000  Level Washington Center
08:50PM 38.0275 -80.3342 188° South 464 534 38,000  Level Washington Center
08:51PM 37.9014 -80.3581 189° South 464 534 38,000  Level Washington Center
08:53PM 37.6556 -80.4011 188° South 469 540 38,000  Level Atlanta Center
08:54PM 37.5311 -80.4225 188° South 463 533 38,000  Level Atlanta Center
08:55PM 37.4192 -80.4436 189° South 458 527 38,000  Level Atlanta Center
08:56PM 37.2950 -80.4650 188° South 458 527 38,000  Level Atlanta Center
08:57PM 37.1744 -80.4858 188° South 458 527 38,000  Level Atlanta Center
08:58PM 37.0500 -80.5047 187° South 458 527 38,000  Level Atlanta Center
08:59PM 36.9131 -80.5289 188° South 458 527 38,000  Level Atlanta Center
09:00PM 36.7928 -80.5522 189° South 458 527 38,000  Level Atlanta Center
09:01PM 36.6850 -80.5700 188° South 443 510 38,000  Level Atlanta Center
09:02PM 36.5647 -80.5933 189° South 443 510 38,000  Level Atlanta Center
09:03PM 36.4400 -80.6117 187° South 448 516 38,000  Level Atlanta Center
09:04PM 36.3175 -80.6297 187° South 448 516 38,000  Level Atlanta Center
09:05PM 36.1928 -80.6478 187° South 443 510 38,000  Level Atlanta Center
09:06PM 36.0725 -80.6658 187° South 443 510 38,000  Level Atlanta Center
09:07PM 35.9497 -80.6811 186° South 443 510 38,000  Level Atlanta Center
09:08PM 35.8272 -80.7017 188° South 443 510 38,000  Level Atlanta Center
09:09PM 35.6922 -80.7197 186° South 443 510 38,000  Level Atlanta Center
09:10PM 35.5675 -80.7378 187° South 443 510 38,000  Level Atlanta Center
09:11PM 35.4447 -80.7553 187° South 448 516 38,000  Level Atlanta Center
09:12PM 35.3200 -80.7731 187° South 448 516 38,000  Level Atlanta Center
09:13PM 35.1292 -80.7986 186° South 454 522 38,000  Level Jacksonville Center
09:18PM 34.4884 -80.8868 186° South 38,000  Level FlightAware ADS-B (KCDN)
09:19PM 34.3648 -80.9037 186° South 440 506 38,000  Level FlightAware ADS-B (KCDN)
09:20PM 34.2740 -80.9161 186° South 440 506 38,000  Level FlightAware ADS-B (KCDN)
09:21PM 34.2117 -80.9246 186° South 440 506 38,000  Level FlightAware ADS-B (KCDN)
09:21PM 34.1435 -80.9340 186° South 439 505 38,000  Level FlightAware ADS-B (KCDN)
09:22PM 34.0633 -80.9448 186° South 438 504 38,000  Level FlightAware ADS-B (KCDN)
09:22PM 33.9985 -80.9536 186° South 437 503 38,000  Level FlightAware ADS-B (KCDN)
09:23PM 33.9370 -80.9619 186° South 438 504 38,000  Level FlightAware ADS-B (KCDN)
09:24PM 33.8463 -80.9741 186° South 438 504 38,000  Level FlightAware ADS-B (KCDN)
09:24PM 33.7517 -80.9869 186° South 439 505 38,000  Level FlightAware ADS-B (KCDN)
09:25PM 33.6818 -80.9963 186° South 439 505 38,000  Level FlightAware ADS-B (KCDN)
09:26PM 33.5367 -81.0186 186° South 442 509 38,000  Level Jacksonville Center
09:27PM 33.4158 -81.0336 186° South 442 509 38,000 -60 Level Jacksonville Center
09:28PM 33.2969 -81.0511 187° South 442 509 37,900  Descending Jacksonville Center
09:29PM 33.1783 -81.0661 186° South 442 509 38,000  Climbing Jacksonville Center
09:30PM 33.0553 -81.0783 185° South 442 509 38,000  Level Jacksonville Center
09:31PM 32.9322 -81.0783 180° South 442 509 38,000  Level Jacksonville Center
09:32PM 32.8111 -81.0808 181° South 442 509 38,000  Level Jacksonville Center
09:33PM 32.6900 -81.0808 180° South 437 503 38,000  Level Jacksonville Center
09:34PM 32.5817 -81.0831 181° South 437 503 38,000  Level Jacksonville Center
09:35PM 32.4481 -81.0856 181° South 437 503 38,000  Level Jacksonville Center
09:36PM 32.3269 -81.0831 179° South 438 504 38,000 -60 Level Jacksonville Center
09:37PM 32.2078 -81.0831 180° South 433 498 37,900 -60 Descending Jacksonville Center
09:38PM 32.0869 -81.0878 182° South 433 498 37,900  Level Jacksonville Center
09:39PM 31.9658 -81.0853 179° South 433 498 38,000  Climbing Jacksonville Center
09:40PM 31.8594 -81.0900 182° South 438 504 38,000  Level Jacksonville Center
09:41PM 31.7217 -81.0900 180° South 443 510 38,000  Level Jacksonville Center
09:42PM 31.6108 -81.0922 181° South 437 503 38,000  Level Jacksonville Center
09:43PM 31.4772 -81.0925 180° South 438 504 38,000  Level Jacksonville Center
09:44PM 31.3561 -81.0922 180° South 438 504 38,000 -300 Level Jacksonville Center
09:45PM 31.2308 -81.0922 180° South 444 511 37,400 -720 Descending Jacksonville Center
09:46PM 31.1078 -81.0969 182° South 437 503 36,600 -720 Descending Jacksonville Center
09:47PM 30.9867 -81.0994 181° South 437 503 36,000 -480 Descending Jacksonville Center
09:48PM 30.8614 -81.0994 180° South 437 503 35,700 -1,680 Descending Jacksonville Center
09:49PM 30.7361 -81.0992 180° South 437 503 32,700 -2,520 Descending Jacksonville Center
09:50PM 30.6172 -81.0992 180° South 437 503 30,700 -2,100 Descending Jacksonville Center
09:51PM 30.5025 -81.1036 182° South 431 496 28,600 -1,440 Descending Jacksonville Center
09:52PM 30.3833 -81.1033 180° South 426 490 27,900 -600 Descending Jacksonville Center
09:53PM 30.2664 -81.1033 180° South 426 490 27,400 -2,100 Descending Jacksonville Center
09:54PM 30.1456 -81.1056 181° South 426 490 23,800 -3,180 Descending Jacksonville Center
09:55PM 30.0244 -81.1078 181° South 426 490 21,100 -2,640 Descending Jacksonville Center
09:56PM 29.9139 -81.1097 181° South 419 482 18,600 -2,520 Descending Jacksonville Center
09:57PM 29.8594 -81.1108 181° South 402 463 17,500 -1,620 Descending Jacksonville Center
10:02PM 29.2788 -81.1333 187° South 290 334 8,700 -1,560 Descending FlightAware ADS-B (KMCO)
10:03PM 29.2538 -81.1369 187° South 288 331 8,300 -1,380 Descending FlightAware ADS-B (KMCO)
10:03PM 29.2153 -81.1426 188° South 284 327 7,600 -1,440 Descending FlightAware ADS-B (KMCO)
10:04PM 29.1873 -81.1469 187° South 278 320 7,100 -1,500 Descending FlightAware ADS-B (KMCO)
10:04PM 29.1628 -81.1506 188° South 277 319 6,600 -1,500 Descending FlightAware ADS-B (KMCO)
10:04PM 29.1303 -81.1555 188° South 278 320 5,900 -1,440 Descending FlightAware ADS-B (KMCO)
10:05PM 29.0920 -81.1613 188° South 277 319 5,200 -1,200 Descending FlightAware ADS-B (KMCO)
10:05PM 29.0480 -81.1684 191° South 270 311 4,700 -720 Descending FlightAware ADS-B (KMCO)
10:06PM 29.0233 -81.1740 191° South 271 312 4,600 -180 Descending FlightAware ADS-B (KMCO)
10:06PM 29.0009 -81.1789 191° South 270 311 4,600  Level FlightAware ADS-B (KMCO)
10:07PM 28.9676 -81.1864 195° South 251 289 4,600 -420 Level FlightAware ADS-B (KMCO)
10:07PM 28.9440 -81.1982 212° Southwest 239 275 4,300 -1,020 Descending FlightAware ADS-B (KMCO)
10:07PM 28.9294 -81.2099 218° Southwest 224 258 4,000 -780 Descending FlightAware ADS-B (KMCO)
10:07PM 28.9176 -81.2203 218° Southwest 217 250 3,900 -720 Descending FlightAware ADS-B (KMCO)
10:08PM 28.9036 -81.2339 223° Southwest 205 236 3,600 -1,320 Descending FlightAware ADS-B (KMCO)
10:08PM 28.8911 -81.2477 225° Southwest 201 231 3,100 -1,440 Descending FlightAware ADS-B (KMCO)
10:09PM 28.8703 -81.2707 224° Southwest 199 229 2,400 -1,320 Descending FlightAware ADS-B (KMCO)
10:09PM 28.8572 -81.2850 224° Southwest 197 227 2,000 -840 Descending FlightAware ADS-B (KMCO)
10:10PM 28.7974 -81.3137 160° South 137 158 1,000 -780 Descending FlightAware ADS-B (KSFB)
10:10PM 28.7967 -81.3134 153° Southeast 134 154 900 -900 Descending FlightAware ADS-B (KSFB)
10:11PM 28.7820 -81.2947 106° East 124 143 400 -840 Descending FlightAware ADS-B (KSFB)
10:18PM 28.7667 -81.2333 199° South  Level FlightAware Approximate
10:19PM 28.7770 -81.2349 199° South  Level Estimated
10:20PM 28.7770 -81.2349 199° South  Level Estimated
10:21PM 28.7770 -81.2349 199° South  Level Estimated